LIPQLIPA

Guest
Details From LIPQ - Trieste Ronchi Dei Legionari
To LIPA - Aviano Ab
Flight Number -
Tags Generated
Created
Modified
Stats Distance 38 nm / 70 km
Max Altitude 0 ft / 0 m
Waypoints 2
Social Downloads 3
Likes 0
Share VATSIM

Download

Looking for another format? Having issues loading an existing format? Contact us
Advertisement - Login to hide

Notes

Generated

Route

LIPQ LIPA

ID Type Via Altitude Latitude Longitude Leg Dist Tot Dist Heading (true) Name
O LIPQ APT - 0 ft / 0 m 45.82797˚ 13.44736˚ - 0 nm - -
O LIPA APT - 0 ft / 0 m 46.02333˚ 12.58389˚ 37 nm 37 nm 288° / 288° -

Altitude Profile

Advertisement - Login to hide

LIPQ

Details ICAO LIPQ (TRS)
Name Ronchi Dei Legionari
Region Italy
Timezone Europe/Rome (UTC+1.0)
Stats Elevation 37 ft / 11 m (AMSL)
Location 45.827857° 13.466663°
Runways 1
Magnetic Variation 3.431° E

METAR

LIPQ 140620Z 01003KT 9999 SCT020 BKN050 05/05 Q1009

Decode

TAF

TAF LIPQ 140500Z 1406/1506 VRB05KT 9999 SCT030

Decode

Departure Runways

ID Width Length Bearing (true) Bearing (mag) Surface Threshold Offset Overrun Length
09 148 ft / 45 m 9,819 ft / 2,993 m 90.42° 86.99° Asphalt 823 ft / 251 m 0 ft / 0 m
27 148 ft / 45 m 9,819 ft / 2,993 m 270.44° 267.01° Asphalt 10 ft / 3 m 190 ft / 58 m

LIPA

Details ICAO LIPA (AVB)
Name AVIANO AB
Region Italy
Timezone Europe/Rome (UTC+1.0)
Stats Elevation 410 ft / 125 m (AMSL)
Location 46.031111° 12.596389°
Runways 1
Magnetic Variation 3.255° E

METAR

LIPA 140555Z 04003KT 9999 SCT025 BKN040 04/03 Q1008 RMK OVC VIS MIN 9999 WIND THR05 /////KT WIND THR23 /////KT A2979 BLU

Decode

TAF

Not found

Destination Runways

ID Width Length Bearing (true) Bearing (mag) Surface Threshold Offset Overrun Length
05 144 ft / 44 m 8,505 ft / 2,592 m 48.12° 44.87° Asphalt 0 ft / 0 m 845 ft / 258 m
23 144 ft / 44 m 8,505 ft / 2,592 m 228.14° 224.89° Asphalt 0 ft / 0 m 919 ft / 280 m

Approach Navaids

Runway Type Ident Frequency Range Bearing (true) Bearing (mag) Slope Elevation
05 Localiser IAVI 109.50 MHz 18 nm / 33 km 48.12° 44.87° - 410 ft / 125 m (AMSL)

Popular Alternatives